sensor_id;sensor_type;location;lat;lon;timestamp;pressure;altitude;pressure_sealevel;temperature;humidity
67345;BME280;54230;52.402;6.276;2023-02-23T00:00:00;101320.0;;;8.1;100.0
67345;BME280;54230;52.402;6.276;2023-02-23T00:05:00;101330.0;;;8.1;100.0
67345;BME280;54230;52.402;6.276;2023-02-23T00:10:00;101320.0;;;8.2;100.0
67345;BME280;54230;52.402;6.276;2023-02-23T00:15:00;101330.0;;;8.2;100.0
67345;BME280;54230;52.402;6.276;2023-02-23T00:20:00;101330.0;;;8.2;100.0
67345;BME280;54230;52.402;6.276;2023-02-23T00:25:00;101320.0;;;8.1;100.0
67345;BME280;54230;52.402;6.276;2023-02-23T00:30:00;101310.0;;;8.1;100.0
67345;BME280;54230;52.402;6.276;2023-02-23T00:35:00;101320.0;;;8.1;100.0
67345;BME280;54230;52.402;6.276;2023-02-23T00:40:00;101310.0;;;8.2;100.0
67345;BME280;54230;52.402;6.276;2023-02-23T00:45:00;101310.0;;;8.2;100.0
67345;BME280;54230;52.402;6.276;2023-02-23T00:50:00;101320.0;;;8.2;100.0
67345;BME280;54230;52.402;6.276;2023-02-23T00:55:00;101310.0;;;8.2;100.0
67345;BME280;54230;52.402;6.276;2023-02-23T01:00:00;101320.0;;;8.1;100.0
67345;BME280;54230;52.402;6.276;2023-02-23T01:05:00;101320.0;;;8.1;100.0
67345;BME280;54230;52.402;6.276;2023-02-23T01:10:00;101310.0;;;8.1;100.0
67345;BME280;54230;52.402;6.276;2023-02-23T01:15:00;101310.0;;;8.1;100.0
67345;BME280;54230;52.402;6.276;2023-02-23T01:20:00;101310.0;;;8.1;100.0
67345;BME280;54230;52.402;6.276;2023-02-23T01:25:00;101320.0;;;8.1;100.0
67345;BME280;54230;52.402;6.276;2023-02-23T01:30:00;101320.0;;;8.0;100.0
67345;BME280;54230;52.402;6.276;2023-02-23T01:35:01;101330.0;;;8.1;100.0
67345;BME280;54230;52.402;6.276;2023-02-23T01:40:01;101330.0;;;8.1;100.0
67345;BME280;54230;52.402;6.276;2023-02-23T01:45:17;101330.0;;;8.1;100.0
67345;BME280;54230;52.402;6.276;2023-02-23T01:50:00;101330.0;;;8.1;100.0
67345;BME280;54230;52.402;6.276;2023-02-23T01:55:00;101330.0;;;8.0;100.0
67345;BME280;54230;52.402;6.276;2023-02-23T02:00:00;101330.0;;;7.9;100.0
67345;BME280;54230;52.402;6.276;2023-02-23T02:05:02;101330.0;;;7.9;100.0
67345;BME280;54230;52.402;6.276;2023-02-23T02:10:00;101320.0;;;7.8;100.0
67345;BME280;54230;52.402;6.276;2023-02-23T02:15:01;101320.0;;;7.9;100.0
67345;BME280;54230;52.402;6.276;2023-02-23T02:20:18;101320.0;;;7.8;100.0
67345;BME280;54230;52.402;6.276;2023-02-23T02:25:21;101330.0;;;7.9;100.0
67345;BME280;54230;52.402;6.276;2023-02-23T02:40:06;101320.0;;;7.9;100.0
67345;BME280;54230;52.402;6.276;2023-02-23T02:45:05;101320.0;;;7.9;100.0
67345;BME280;54230;52.402;6.276;2023-02-23T02:50:04;101320.0;;;7.9;100.0
67345;BME280;54230;52.402;6.276;2023-02-23T02:55:05;101320.0;;;7.8;100.0
67345;BME280;54230;52.402;6.276;2023-02-23T03:00:00;101320.0;;;7.8;100.0
67345;BME280;54230;52.402;6.276;2023-02-23T03:05:00;101320.0;;;7.8;100.0
67345;BME280;54230;52.402;6.276;2023-02-23T03:10:02;101320.0;;;7.8;100.0
67345;BME280;54230;52.402;6.276;2023-02-23T03:15:10;101320.0;;;7.7;100.0
67345;BME280;54230;52.402;6.276;2023-02-23T03:20:05;101320.0;;;7.7;100.0
67345;BME280;54230;52.402;6.276;2023-02-23T03:25:06;101320.0;;;7.7;100.0
67345;BME280;54230;52.402;6.276;2023-02-23T03:30:04;101320.0;;;7.7;100.0
67345;BME280;54230;52.402;6.276;2023-02-23T03:35:05;101330.0;;;7.7;100.0
67345;BME280;54230;52.402;6.276;2023-02-23T03:40:04;101330.0;;;7.7;100.0
67345;BME280;54230;52.402;6.276;2023-02-23T03:45:04;101320.0;;;7.7;100.0
67345;BME280;54230;52.402;6.276;2023-02-23T03:50:02;101330.0;;;7.7;100.0
67345;BME280;54230;52.402;6.276;2023-02-23T03:55:03;101330.0;;;7.7;100.0
67345;BME280;54230;52.402;6.276;2023-02-23T04:00:03;101330.0;;;7.7;100.0
67345;BME280;54230;52.402;6.276;2023-02-23T04:05:04;101330.0;;;7.7;100.0
67345;BME280;54230;52.402;6.276;2023-02-23T04:10:00;101340.0;;;7.7;100.0
67345;BME280;54230;52.402;6.276;2023-02-23T04:15:03;101340.0;;;7.7;100.0
67345;BME280;54230;52.402;6.276;2023-02-23T04:20:00;101350.0;;;7.7;100.0
67345;BME280;54230;52.402;6.276;2023-02-23T04:25:00;101350.0;;;7.8;100.0
67345;BME280;54230;52.402;6.276;2023-02-23T04:30:00;101340.0;;;7.7;100.0
67345;BME280;54230;52.402;6.276;2023-02-23T04:35:00;101350.0;;;7.7;100.0
67345;BME280;54230;52.402;6.276;2023-02-23T04:40:00;101350.0;;;7.7;100.0
67345;BME280;54230;52.402;6.276;2023-02-23T04:45:00;101350.0;;;7.7;100.0
67345;BME280;54230;52.402;6.276;2023-02-23T04:50:00;101360.0;;;7.6;100.0
67345;BME280;54230;52.402;6.276;2023-02-23T04:55:00;101360.0;;;7.6;100.0
67345;BME280;54230;52.402;6.276;2023-02-23T05:00:00;101370.0;;;7.6;100.0
67345;BME280;54230;52.402;6.276;2023-02-23T05:05:00;101360.0;;;7.6;100.0
67345;BME280;54230;52.402;6.276;2023-02-23T05:10:00;101370.0;;;7.6;100.0
67345;BME280;54230;52.402;6.276;2023-02-23T05:15:00;101370.0;;;7.6;100.0
67345;BME280;54230;52.402;6.276;2023-02-23T05:20:00;101370.0;;;7.5;100.0
67345;BME280;54230;52.402;6.276;2023-02-23T05:25:00;101370.0;;;7.5;100.0
67345;BME280;54230;52.402;6.276;2023-02-23T05:30:00;101370.0;;;7.5;100.0
67345;BME280;54230;52.402;6.276;2023-02-23T05:35:00;101380.0;;;7.6;100.0
67345;BME280;54230;52.402;6.276;2023-02-23T05:40:00;101380.0;;;7.5;100.0
67345;BME280;54230;52.402;6.276;2023-02-23T05:45:00;101380.0;;;7.5;100.0
67345;BME280;54230;52.402;6.276;2023-02-23T05:50:00;101380.0;;;7.5;100.0
67345;BME280;54230;52.402;6.276;2023-02-23T05:55:00;101380.0;;;7.5;100.0
67345;BME280;54230;52.402;6.276;2023-02-23T06:00:00;101380.0;;;7.5;100.0
67345;BME280;54230;52.402;6.276;2023-02-23T06:05:01;101390.0;;;7.4;100.0
67345;BME280;54230;52.402;6.276;2023-02-23T06:10:00;101400.0;;;7.5;100.0
67345;BME280;54230;52.402;6.276;2023-02-23T06:15:00;101400.0;;;7.4;100.0
67345;BME280;54230;52.402;6.276;2023-02-23T06:20:00;101410.0;;;7.4;100.0
67345;BME280;54230;52.402;6.276;2023-02-23T06:25:00;101410.0;;;7.4;100.0
67345;BME280;54230;52.402;6.276;2023-02-23T06:30:00;101430.0;;;7.4;100.0
67345;BME280;54230;52.402;6.276;2023-02-23T06:35:00;101430.0;;;7.4;100.0
67345;BME280;54230;52.402;6.276;2023-02-23T06:40:00;101430.0;;;7.4;100.0
67345;BME280;54230;52.402;6.276;2023-02-23T06:45:00;101430.0;;;7.4;100.0
67345;BME280;54230;52.402;6.276;2023-02-23T06:50:00;101440.0;;;7.4;100.0
67345;BME280;54230;52.402;6.276;2023-02-23T06:55:00;101440.0;;;7.4;100.0
67345;BME280;54230;52.402;6.276;2023-02-23T07:00:00;101440.0;;;7.4;100.0
67345;BME280;54230;52.402;6.276;2023-02-23T07:05:00;101440.0;;;7.4;100.0
67345;BME280;54230;52.402;6.276;2023-02-23T07:10:00;101430.0;;;7.3;100.0
67345;BME280;54230;52.402;6.276;2023-02-23T07:15:00;101450.0;;;7.4;100.0
67345;BME280;54230;52.402;6.276;2023-02-23T07:20:00;101460.0;;;7.4;100.0
67345;BME280;54230;52.402;6.276;2023-02-23T07:25:00;101470.0;;;7.5;100.0
67345;BME280;54230;52.402;6.276;2023-02-23T07:30:01;101470.0;;;7.5;100.0
67345;BME280;54230;52.402;6.276;2023-02-23T07:35:00;101480.0;;;7.6;100.0
67345;BME280;54230;52.402;6.276;2023-02-23T07:40:00;101490.0;;;7.6;100.0
67345;BME280;54230;52.402;6.276;2023-02-23T07:45:00;101490.0;;;7.6;100.0
67345;BME280;54230;52.402;6.276;2023-02-23T07:50:00;101480.0;;;7.5;100.0
67345;BME280;54230;52.402;6.276;2023-02-23T07:55:00;101500.0;;;7.6;100.0
67345;BME280;54230;52.402;6.276;2023-02-23T08:00:00;101500.0;;;7.6;100.0
67345;BME280;54230;52.402;6.276;2023-02-23T08:05:00;101500.0;;;7.6;100.0
67345;BME280;54230;52.402;6.276;2023-02-23T08:10:00;101510.0;;;7.7;100.0
67345;BME280;54230;52.402;6.276;2023-02-23T08:15:00;101510.0;;;7.7;100.0
67345;BME280;54230;52.402;6.276;2023-02-23T08:20:00;101510.0;;;7.8;100.0
67345;BME280;54230;52.402;6.276;2023-02-23T08:25:00;101520.0;;;7.8;100.0
67345;BME280;54230;52.402;6.276;2023-02-23T08:30:00;101520.0;;;7.8;100.0
67345;BME280;54230;52.402;6.276;2023-02-23T08:35:01;101520.0;;;7.8;100.0
67345;BME280;54230;52.402;6.276;2023-02-23T08:40:00;101530.0;;;7.8;100.0
67345;BME280;54230;52.402;6.276;2023-02-23T08:45:00;101540.0;;;7.8;100.0
67345;BME280;54230;52.402;6.276;2023-02-23T08:50:00;101540.0;;;7.8;100.0
67345;BME280;54230;52.402;6.276;2023-02-23T08:55:00;101540.0;;;7.8;100.0
67345;BME280;54230;52.402;6.276;2023-02-23T09:00:00;101550.0;;;7.9;100.0
67345;BME280;54230;52.402;6.276;2023-02-23T09:05:00;101550.0;;;7.8;100.0
67345;BME280;54230;52.402;6.276;2023-02-23T09:10:00;101550.0;;;7.9;100.0
67345;BME280;54230;52.402;6.276;2023-02-23T09:15:00;101550.0;;;8.0;100.0
67345;BME280;54230;52.402;6.276;2023-02-23T09:20:00;101560.0;;;8.0;100.0
67345;BME280;54230;52.402;6.276;2023-02-23T09:25:00;101560.0;;;8.1;100.0
67345;BME280;54230;52.402;6.276;2023-02-23T09:30:00;101570.0;;;8.0;100.0
67345;BME280;54230;52.402;6.276;2023-02-23T09:35:00;101570.0;;;8.1;100.0
67345;BME280;54230;52.402;6.276;2023-02-23T09:40:00;101570.0;;;8.2;100.0
67345;BME280;54230;52.402;6.276;2023-02-23T09:45:08;101570.0;;;8.1;100.0
67345;BME280;54230;52.402;6.276;2023-02-23T09:50:03;101580.0;;;8.1;100.0
67345;BME280;54230;52.402;6.276;2023-02-23T09:55:00;101580.0;;;8.2;100.0
67345;BME280;54230;52.402;6.276;2023-02-23T10:00:00;101580.0;;;8.2;100.0
67345;BME280;54230;52.402;6.276;2023-02-23T10:05:03;101570.0;;;8.1;100.0
67345;BME280;54230;52.402;6.276;2023-02-23T10:10:06;101560.0;;;8.2;100.0
67345;BME280;54230;52.402;6.276;2023-02-23T10:15:07;101570.0;;;8.4;100.0
67345;BME280;54230;52.402;6.276;2023-02-23T10:20:09;101580.0;;;8.4;100.0
67345;BME280;54230;52.402;6.276;2023-02-23T10:25:04;101580.0;;;8.3;100.0
67345;BME280;54230;52.402;6.276;2023-02-23T10:30:01;101590.0;;;8.3;100.0
67345;BME280;54230;52.402;6.276;2023-02-23T10:35:09;101600.0;;;8.4;100.0
67345;BME280;54230;52.402;6.276;2023-02-23T10:40:01;101590.0;;;8.3;100.0
67345;BME280;54230;52.402;6.276;2023-02-23T10:45:00;101600.0;;;8.3;100.0
67345;BME280;54230;52.402;6.276;2023-02-23T10:50:02;101610.0;;;8.3;100.0
67345;BME280;54230;52.402;6.276;2023-02-23T10:55:03;101610.0;;;8.4;100.0
67345;BME280;54230;52.402;6.276;2023-02-23T11:00:06;101610.0;;;8.4;100.0
67345;BME280;54230;52.402;6.276;2023-02-23T11:05:02;101600.0;;;8.4;100.0
67345;BME280;54230;52.402;6.276;2023-02-23T11:15:20;101590.0;;;8.6;100.0
67345;BME280;54230;52.402;6.276;2023-02-23T11:20:04;101600.0;;;8.8;100.0
67345;BME280;54230;52.402;6.276;2023-02-23T11:25:11;101610.0;;;9.0;100.0
67345;BME280;54230;52.402;6.276;2023-02-23T11:30:04;101610.0;;;9.0;100.0
67345;BME280;54230;52.402;6.276;2023-02-23T11:35:12;101610.0;;;8.9;100.0
67345;BME280;54230;52.402;6.276;2023-02-23T11:40:16;101620.0;;;8.7;100.0
67345;BME280;54230;52.402;6.276;2023-02-23T11:45:02;101620.0;;;8.7;100.0
67345;BME280;54230;52.402;6.276;2023-02-23T11:50:01;101620.0;;;8.8;100.0
67345;BME280;54230;52.402;6.276;2023-02-23T11:55:05;101610.0;;;8.7;100.0
67345;BME280;54230;52.402;6.276;2023-02-23T12:00:07;101610.0;;;8.7;100.0
67345;BME280;54230;52.402;6.276;2023-02-23T12:05:03;101610.0;;;8.7;99.7
67345;BME280;54230;52.402;6.276;2023-02-23T12:10:06;101610.0;;;8.6;98.2
67345;BME280;54230;52.402;6.276;2023-02-23T12:15:05;101590.0;;;8.5;98.3
67345;BME280;54230;52.402;6.276;2023-02-23T12:20:03;101610.0;;;8.6;97.2
67345;BME280;54230;52.402;6.276;2023-02-23T12:25:03;101610.0;;;8.7;97.3
67345;BME280;54230;52.402;6.276;2023-02-23T12:30:08;101610.0;;;8.6;96.3
67345;BME280;54230;52.402;6.276;2023-02-23T12:35:04;101610.0;;;8.7;95.4
67345;BME280;54230;52.402;6.276;2023-02-23T12:40:09;101610.0;;;8.7;94.7
67345;BME280;54230;52.402;6.276;2023-02-23T12:45:03;101620.0;;;8.8;94.6
67345;BME280;54230;52.402;6.276;2023-02-23T12:50:02;101620.0;;;8.8;94.2
67345;BME280;54230;52.402;6.276;2023-02-23T12:55:00;101620.0;;;8.9;94.1
67345;BME280;54230;52.402;6.276;2023-02-23T13:05:08;101620.0;;;9.0;94.1
67345;BME280;54230;52.402;6.276;2023-02-23T13:10:05;101620.0;;;8.9;94.8
67345;BME280;54230;52.402;6.276;2023-02-23T13:15:11;101620.0;;;8.8;94.6
67345;BME280;54230;52.402;6.276;2023-02-23T13:20:03;101620.0;;;8.7;95.4
67345;BME280;54230;52.402;6.276;2023-02-23T13:25:03;101620.0;;;8.8;96.1
67345;BME280;54230;52.402;6.276;2023-02-23T13:30:01;101610.0;;;8.9;96.1
67345;BME280;54230;52.402;6.276;2023-02-23T13:35:02;101610.0;;;9.0;96.4
67345;BME280;54230;52.402;6.276;2023-02-23T13:40:06;101610.0;;;8.8;98.0
67345;BME280;54230;52.402;6.276;2023-02-23T13:45:19;101610.0;;;8.9;98.1
67345;BME280;54230;52.402;6.276;2023-02-23T13:50:05;101600.0;;;8.8;99.2
67345;BME280;54230;52.402;6.276;2023-02-23T13:55:00;101620.0;;;8.9;100.0
67345;BME280;54230;52.402;6.276;2023-02-23T14:00:01;101620.0;;;9.1;99.7
67345;BME280;54230;52.402;6.276;2023-02-23T14:05:02;101620.0;;;9.2;99.4
67345;BME280;54230;52.402;6.276;2023-02-23T14:10:05;101620.0;;;9.1;99.0
67345;BME280;54230;52.402;6.276;2023-02-23T14:20:06;101640.0;;;8.9;100.0
67345;BME280;54230;52.402;6.276;2023-02-23T14:30:13;101620.0;;;8.8;100.0
67345;BME280;54230;52.402;6.276;2023-02-23T14:35:01;101620.0;;;8.8;100.0
67345;BME280;54230;52.402;6.276;2023-02-23T14:40:06;101620.0;;;8.9;100.0
67345;BME280;54230;52.402;6.276;2023-02-23T14:45:04;101610.0;;;8.9;99.4
67345;BME280;54230;52.402;6.276;2023-02-23T14:50:01;101600.0;;;8.8;99.0
67345;BME280;54230;52.402;6.276;2023-02-23T14:55:13;101610.0;;;8.9;98.6
67345;BME280;54230;52.402;6.276;2023-02-23T15:00:06;101600.0;;;8.9;98.6
67345;BME280;54230;52.402;6.276;2023-02-23T15:05:14;101610.0;;;8.9;98.3
67345;BME280;54230;52.402;6.276;2023-02-23T15:10:08;101610.0;;;8.9;98.0
67345;BME280;54230;52.402;6.276;2023-02-23T15:15:02;101610.0;;;8.9;98.4
67345;BME280;54230;52.402;6.276;2023-02-23T15:20:02;101610.0;;;8.9;98.3
67345;BME280;54230;52.402;6.276;2023-02-23T15:25:06;101610.0;;;9.0;97.9
67345;BME280;54230;52.402;6.276;2023-02-23T15:30:02;101610.0;;;9.4;97.5
67345;BME280;54230;52.402;6.276;2023-02-23T15:35:00;101610.0;;;9.6;95.0
67345;BME280;54230;52.402;6.276;2023-02-23T15:40:03;101620.0;;;9.3;96.6
67345;BME280;54230;52.402;6.276;2023-02-23T15:45:03;101630.0;;;8.9;99.4
67345;BME280;54230;52.402;6.276;2023-02-23T15:50:04;101630.0;;;8.6;100.0
67345;BME280;54230;52.402;6.276;2023-02-23T15:55:05;101640.0;;;8.3;100.0
67345;BME280;54230;52.402;6.276;2023-02-23T16:00:02;101650.0;;;8.0;100.0
67345;BME280;54230;52.402;6.276;2023-02-23T16:05:09;101640.0;;;7.8;100.0
67345;BME280;54230;52.402;6.276;2023-02-23T16:10:03;101650.0;;;7.6;100.0
67345;BME280;54230;52.402;6.276;2023-02-23T16:15:02;101650.0;;;7.4;100.0
67345;BME280;54230;52.402;6.276;2023-02-23T16:20:09;101640.0;;;7.1;100.0
67345;BME280;54230;52.402;6.276;2023-02-23T16:25:02;101660.0;;;7.3;100.0
67345;BME280;54230;52.402;6.276;2023-02-23T16:30:14;101660.0;;;7.3;100.0
67345;BME280;54230;52.402;6.276;2023-02-23T16:35:02;101660.0;;;7.3;100.0
67345;BME280;54230;52.402;6.276;2023-02-23T16:40:00;101660.0;;;7.2;100.0
67345;BME280;54230;52.402;6.276;2023-02-23T16:45:00;101670.0;;;7.2;100.0
67345;BME280;54230;52.402;6.276;2023-02-23T16:50:01;101650.0;;;7.2;100.0
67345;BME280;54230;52.402;6.276;2023-02-23T16:55:00;101680.0;;;7.2;100.0
67345;BME280;54230;52.402;6.276;2023-02-23T17:00:00;101680.0;;;7.2;100.0
67345;BME280;54230;52.402;6.276;2023-02-23T17:05:00;101690.0;;;7.1;100.0
67345;BME280;54230;52.402;6.276;2023-02-23T17:10:00;101710.0;;;7.0;100.0
67345;BME280;54230;52.402;6.276;2023-02-23T17:15:01;101720.0;;;6.8;99.7
67345;BME280;54230;52.402;6.276;2023-02-23T17:20:00;101710.0;;;6.8;99.2
67345;BME280;54230;52.402;6.276;2023-02-23T17:25:00;101730.0;;;6.8;98.4
67345;BME280;54230;52.402;6.276;2023-02-23T17:30:00;101730.0;;;6.8;97.4
67345;BME280;54230;52.402;6.276;2023-02-23T17:35:00;101730.0;;;6.6;97.8
67345;BME280;54230;52.402;6.276;2023-02-23T17:40:00;101730.0;;;6.6;98.9
67345;BME280;54230;52.402;6.276;2023-02-23T17:45:00;101730.0;;;6.4;99.3
67345;BME280;54230;52.402;6.276;2023-02-23T17:50:00;101730.0;;;6.4;99.9
67345;BME280;54230;52.402;6.276;2023-02-23T17:55:00;101750.0;;;6.3;99.3
67345;BME280;54230;52.402;6.276;2023-02-23T18:00:00;101750.0;;;6.4;99.4
67345;BME280;54230;52.402;6.276;2023-02-23T18:05:00;101750.0;;;6.4;98.3
67345;BME280;54230;52.402;6.276;2023-02-23T18:10:00;101750.0;;;6.3;98.3
67345;BME280;54230;52.402;6.276;2023-02-23T18:15:00;101760.0;;;6.3;97.8
67345;BME280;54230;52.402;6.276;2023-02-23T18:20:00;101750.0;;;6.3;98.3
67345;BME280;54230;52.402;6.276;2023-02-23T18:25:00;101760.0;;;6.2;98.0
67345;BME280;54230;52.402;6.276;2023-02-23T18:30:00;101760.0;;;6.3;98.6
67345;BME280;54230;52.402;6.276;2023-02-23T18:35:00;101760.0;;;6.3;97.8
67345;BME280;54230;52.402;6.276;2023-02-23T18:40:00;101760.0;;;6.3;97.9
67345;BME280;54230;52.402;6.276;2023-02-23T18:45:00;101760.0;;;6.3;97.7
67345;BME280;54230;52.402;6.276;2023-02-23T18:50:00;101770.0;;;6.4;97.3
67345;BME280;54230;52.402;6.276;2023-02-23T18:55:00;101770.0;;;6.4;96.8
67345;BME280;54230;52.402;6.276;2023-02-23T19:00:00;101770.0;;;6.3;96.4
67345;BME280;54230;52.402;6.276;2023-02-23T19:05:00;101760.0;;;6.3;96.9
67345;BME280;54230;52.402;6.276;2023-02-23T19:10:00;101750.0;;;6.2;96.5
67345;BME280;54230;52.402;6.276;2023-02-23T19:15:00;101750.0;;;6.0;96.4
67345;BME280;54230;52.402;6.276;2023-02-23T19:20:00;101750.0;;;6.0;96.3
67345;BME280;54230;52.402;6.276;2023-02-23T19:25:00;101750.0;;;5.9;96.6
67345;BME280;54230;52.402;6.276;2023-02-23T19:30:00;101750.0;;;5.9;96.8
67345;BME280;54230;52.402;6.276;2023-02-23T19:35:00;101750.0;;;5.8;96.3
67345;BME280;54230;52.402;6.276;2023-02-23T19:40:01;101750.0;;;5.7;96.5
67345;BME280;54230;52.402;6.276;2023-02-23T19:45:00;101740.0;;;5.6;96.5
67345;BME280;54230;52.402;6.276;2023-02-23T19:50:00;101740.0;;;5.6;96.3
67345;BME280;54230;52.402;6.276;2023-02-23T19:55:00;101740.0;;;5.6;95.4
67345;BME280;54230;52.402;6.276;2023-02-23T20:00:00;101740.0;;;5.7;94.4
67345;BME280;54230;52.402;6.276;2023-02-23T20:05:00;101750.0;;;5.6;92.5
67345;BME280;54230;52.402;6.276;2023-02-23T20:10:00;101750.0;;;5.6;91.0
67345;BME280;54230;52.402;6.276;2023-02-23T20:15:00;101750.0;;;5.5;90.5
67345;BME280;54230;52.402;6.276;2023-02-23T20:20:00;101750.0;;;5.5;90.8
67345;BME280;54230;52.402;6.276;2023-02-23T20:25:00;101750.0;;;5.3;90.3
67345;BME280;54230;52.402;6.276;2023-02-23T20:30:01;101760.0;;;5.2;90.9
67345;BME280;54230;52.402;6.276;2023-02-23T20:35:00;101750.0;;;5.1;91.5
67345;BME280;54230;52.402;6.276;2023-02-23T20:40:00;101750.0;;;4.9;91.5
67345;BME280;54230;52.402;6.276;2023-02-23T20:45:00;101750.0;;;4.8;91.8
67345;BME280;54230;52.402;6.276;2023-02-23T20:50:02;101740.0;;;4.7;92.2
67345;BME280;54230;52.402;6.276;2023-02-23T20:55:00;101730.0;;;4.6;92.5
67345;BME280;54230;52.402;6.276;2023-02-23T21:00:02;101730.0;;;4.6;92.7
67345;BME280;54230;52.402;6.276;2023-02-23T21:05:00;101740.0;;;4.5;92.6
67345;BME280;54230;52.402;6.276;2023-02-23T21:10:00;101740.0;;;4.4;92.2
67345;BME280;54230;52.402;6.276;2023-02-23T21:15:00;101740.0;;;4.3;92.0
67345;BME280;54230;52.402;6.276;2023-02-23T21:20:01;101730.0;;;4.2;92.7
67345;BME280;54230;52.402;6.276;2023-02-23T21:25:00;101730.0;;;4.2;92.6
67345;BME280;54230;52.402;6.276;2023-02-23T21:30:01;101730.0;;;4.3;92.7
67345;BME280;54230;52.402;6.276;2023-02-23T21:35:00;101720.0;;;4.2;92.1
67345;BME280;54230;52.402;6.276;2023-02-23T21:40:01;101720.0;;;4.0;92.3
67345;BME280;54230;52.402;6.276;2023-02-23T21:45:00;101720.0;;;4.0;92.8
67345;BME280;54230;52.402;6.276;2023-02-23T21:50:00;101720.0;;;3.9;93.1
67345;BME280;54230;52.402;6.276;2023-02-23T21:55:00;101710.0;;;3.8;92.9
67345;BME280;54230;52.402;6.276;2023-02-23T22:00:00;101710.0;;;3.7;93.0
67345;BME280;54230;52.402;6.276;2023-02-23T22:05:00;101710.0;;;3.6;93.5
67345;BME280;54230;52.402;6.276;2023-02-23T22:10:01;101720.0;;;3.6;93.6
67345;BME280;54230;52.402;6.276;2023-02-23T22:15:01;101710.0;;;3.5;93.4
67345;BME280;54230;52.402;6.276;2023-02-23T22:20:00;101710.0;;;3.4;93.1
67345;BME280;54230;52.402;6.276;2023-02-23T22:25:01;101710.0;;;3.3;93.6
67345;BME280;54230;52.402;6.276;2023-02-23T22:30:00;101710.0;;;3.3;93.9
67345;BME280;54230;52.402;6.276;2023-02-23T22:35:00;101690.0;;;3.2;94.0
67345;BME280;54230;52.402;6.276;2023-02-23T22:40:00;101690.0;;;3.2;94.1
67345;BME280;54230;52.402;6.276;2023-02-23T22:45:00;101690.0;;;3.1;94.4
67345;BME280;54230;52.402;6.276;2023-02-23T22:50:01;101680.0;;;3.0;94.9
67345;BME280;54230;52.402;6.276;2023-02-23T22:55:00;101670.0;;;3.0;95.4
67345;BME280;54230;52.402;6.276;2023-02-23T23:00:00;101660.0;;;2.9;95.9
67345;BME280;54230;52.402;6.276;2023-02-23T23:05:00;101660.0;;;2.9;96.1
67345;BME280;54230;52.402;6.276;2023-02-23T23:10:01;101650.0;;;2.9;96.3
67345;BME280;54230;52.402;6.276;2023-02-23T23:15:00;101650.0;;;2.8;96.3
67345;BME280;54230;52.402;6.276;2023-02-23T23:20:00;101650.0;;;2.6;96.2
67345;BME280;54230;52.402;6.276;2023-02-23T23:25:00;101640.0;;;2.5;97.3
67345;BME280;54230;52.402;6.276;2023-02-23T23:30:00;101640.0;;;2.6;97.8
67345;BME280;54230;52.402;6.276;2023-02-23T23:35:00;101630.0;;;2.7;97.8
67345;BME280;54230;52.402;6.276;2023-02-23T23:40:00;101630.0;;;2.7;97.2
67345;BME280;54230;52.402;6.276;2023-02-23T23:45:00;101630.0;;;2.6;97.1
67345;BME280;54230;52.402;6.276;2023-02-23T23:50:00;101610.0;;;2.7;96.9
67345;BME280;54230;52.402;6.276;2023-02-23T23:55:00;101610.0;;;2.7;96.6
